sensor_id;sensor_type;location;lat;lon;timestamp;pressure;altitude;pressure_sealevel;temperature;humidity
49999;BME280;68071;45.062;7.356;2023-04-19T00:01:53;95239.81;;;10.77;55.49
49999;BME280;68071;45.062;7.356;2023-04-19T00:04:57;95240.16;;;10.86;51.17
49999;BME280;68071;45.062;7.356;2023-04-19T00:08:01;95238.91;;;10.35;56.56
49999;BME280;68071;45.062;7.356;2023-04-19T00:11:05;95238.09;;;10.38;57.71
49999;BME280;68071;45.062;7.356;2023-04-19T00:14:09;95239.13;;;10.62;52.63
49999;BME280;68071;45.062;7.356;2023-04-19T00:17:13;95230.91;;;10.55;56.28
49999;BME280;68071;45.062;7.356;2023-04-19T00:20:17;95236.03;;;10.56;57.08
49999;BME280;68071;45.062;7.356;2023-04-19T00:23:22;95235.75;;;10.40;58.41
49999;BME280;68071;45.062;7.356;2023-04-19T00:26:26;95231.75;;;10.48;59.87
49999;BME280;68071;45.062;7.356;2023-04-19T00:29:30;95230.88;;;10.58;52.83
49999;BME280;68071;45.062;7.356;2023-04-19T00:32:35;95233.59;;;10.02;59.56
49999;BME280;68071;45.062;7.356;2023-04-19T00:35:40;95233.25;;;9.86;59.53
49999;BME280;68071;45.062;7.356;2023-04-19T00:38:46;95227.00;;;9.74;63.80
49999;BME280;68071;45.062;7.356;2023-04-19T00:41:50;95230.44;;;9.96;61.03
49999;BME280;68071;45.062;7.356;2023-04-19T00:44:55;95228.75;;;10.17;61.18
49999;BME280;68071;45.062;7.356;2023-04-19T00:48:00;95227.63;;;10.07;60.18
49999;BME280;68071;45.062;7.356;2023-04-19T00:51:04;95224.25;;;10.98;50.64
49999;BME280;68071;45.062;7.356;2023-04-19T00:54:09;95225.78;;;11.02;52.61
49999;BME280;68071;45.062;7.356;2023-04-19T00:57:14;95227.56;;;10.78;54.54
49999;BME280;68071;45.062;7.356;2023-04-19T01:00:19;95216.94;;;10.73;56.45
49999;BME280;68071;45.062;7.356;2023-04-19T01:03:23;95224.50;;;10.65;56.56
49999;BME280;68071;45.062;7.356;2023-04-19T01:06:29;95222.94;;;10.68;56.53
49999;BME280;68071;45.062;7.356;2023-04-19T01:09:34;95220.06;;;10.19;58.38
49999;BME280;68071;45.062;7.356;2023-04-19T01:12:38;95219.00;;;9.94;56.76
49999;BME280;68071;45.062;7.356;2023-04-19T01:15:42;95220.69;;;9.77;56.54
49999;BME280;68071;45.062;7.356;2023-04-19T01:18:46;95225.19;;;10.20;53.15
49999;BME280;68071;45.062;7.356;2023-04-19T01:21:50;95216.88;;;10.84;49.56
49999;BME280;68071;45.062;7.356;2023-04-19T01:24:55;95218.44;;;10.25;51.69
49999;BME280;68071;45.062;7.356;2023-04-19T01:27:59;95219.97;;;10.33;51.59
49999;BME280;68071;45.062;7.356;2023-04-19T01:31:03;95212.16;;;10.24;51.09
49999;BME280;68071;45.062;7.356;2023-04-19T01:34:07;95204.38;;;10.05;52.03
49999;BME280;68071;45.062;7.356;2023-04-19T01:37:11;95221.19;;;10.28;50.60
49999;BME280;68071;45.062;7.356;2023-04-19T01:40:18;95213.03;;;10.03;51.69
49999;BME280;68071;45.062;7.356;2023-04-19T01:43:22;95209.16;;;9.93;51.51
49999;BME280;68071;45.062;7.356;2023-04-19T01:46:29;95205.03;;;9.45;53.93
49999;BME280;68071;45.062;7.356;2023-04-19T01:49:33;95215.31;;;9.30;55.85
49999;BME280;68071;45.062;7.356;2023-04-19T01:52:37;95207.75;;;9.52;53.82
49999;BME280;68071;45.062;7.356;2023-04-19T01:55:41;95207.00;;;10.83;47.45
49999;BME280;68071;45.062;7.356;2023-04-19T01:58:45;95202.19;;;9.71;52.53
49999;BME280;68071;45.062;7.356;2023-04-19T02:01:49;95204.06;;;9.88;51.38
49999;BME280;68071;45.062;7.356;2023-04-19T02:04:54;95200.41;;;10.06;50.04
49999;BME280;68071;45.062;7.356;2023-04-19T02:08:00;95203.13;;;10.13;50.36
49999;BME280;68071;45.062;7.356;2023-04-19T02:11:09;95201.47;;;9.48;54.92
49999;BME280;68071;45.062;7.356;2023-04-19T02:14:13;95199.84;;;9.62;56.68
49999;BME280;68071;45.062;7.356;2023-04-19T02:17:17;95209.81;;;9.23;58.21
49999;BME280;68071;45.062;7.356;2023-04-19T02:20:21;95201.38;;;9.74;52.90
49999;BME280;68071;45.062;7.356;2023-04-19T02:23:27;95197.88;;;9.62;52.94
49999;BME280;68071;45.062;7.356;2023-04-19T02:26:31;95199.16;;;9.36;56.37
49999;BME280;68071;45.062;7.356;2023-04-19T02:29:36;95204.31;;;9.23;58.24
49999;BME280;68071;45.062;7.356;2023-04-19T02:32:41;95200.78;;;9.15;58.49
49999;BME280;68071;45.062;7.356;2023-04-19T02:35:45;95199.97;;;9.22;56.72
49999;BME280;68071;45.062;7.356;2023-04-19T02:38:49;95194.47;;;9.15;56.74
49999;BME280;68071;45.062;7.356;2023-04-19T02:41:54;95192.06;;;9.31;54.74
49999;BME280;68071;45.062;7.356;2023-04-19T02:44:58;95193.16;;;9.59;53.79
49999;BME280;68071;45.062;7.356;2023-04-19T02:48:03;95190.94;;;9.11;55.14
49999;BME280;68071;45.062;7.356;2023-04-19T02:51:07;95186.53;;;9.35;53.54
49999;BME280;68071;45.062;7.356;2023-04-19T02:54:14;95188.03;;;9.58;52.75
49999;BME280;68071;45.062;7.356;2023-04-19T02:57:20;95196.81;;;9.20;55.86
49999;BME280;68071;45.062;7.356;2023-04-19T03:00:25;95187.44;;;8.81;56.71
49999;BME280;68071;45.062;7.356;2023-04-19T03:03:39;95190.97;;;9.07;56.71
49999;BME280;68071;45.062;7.356;2023-04-19T03:06:43;95192.94;;;9.03;56.85
49999;BME280;68071;45.062;7.356;2023-04-19T03:09:48;95180.25;;;9.34;58.14
49999;BME280;68071;45.062;7.356;2023-04-19T03:12:52;95195.25;;;9.19;57.96
49999;BME280;68071;45.062;7.356;2023-04-19T03:15:56;95194.81;;;9.35;58.53
49999;BME280;68071;45.062;7.356;2023-04-19T03:19:00;95187.84;;;8.83;60.08
49999;BME280;68071;45.062;7.356;2023-04-19T03:22:09;95194.50;;;8.39;61.20
49999;BME280;68071;45.062;7.356;2023-04-19T03:25:13;95190.94;;;8.06;61.12
49999;BME280;68071;45.062;7.356;2023-04-19T03:28:22;95189.38;;;8.01;61.39
49999;BME280;68071;45.062;7.356;2023-04-19T03:31:44;95187.72;;;7.75;63.72
49999;BME280;68071;45.062;7.356;2023-04-19T03:34:50;95192.94;;;7.09;71.38
49999;BME280;68071;45.062;7.356;2023-04-19T03:37:53;95184.81;;;7.28;70.35
49999;BME280;68071;45.062;7.356;2023-04-19T03:40:58;95186.41;;;7.36;67.63
49999;BME280;68071;45.062;7.356;2023-04-19T03:44:05;95180.63;;;7.63;65.17
49999;BME280;68071;45.062;7.356;2023-04-19T03:47:10;95186.09;;;7.55;67.57
49999;BME280;68071;45.062;7.356;2023-04-19T03:50:20;95181.88;;;6.95;70.77
49999;BME280;68071;45.062;7.356;2023-04-19T03:53:29;95174.59;;;7.32;67.04
49999;BME280;68071;45.062;7.356;2023-04-19T03:56:33;95174.16;;;7.22;69.30
49999;BME280;68071;45.062;7.356;2023-04-19T03:59:37;95172.28;;;7.37;67.68
49999;BME280;68071;45.062;7.356;2023-04-19T04:02:41;95177.88;;;6.29;73.21
49999;BME280;68071;45.062;7.356;2023-04-19T04:05:48;95166.56;;;8.37;59.28
49999;BME280;68071;45.062;7.356;2023-04-19T04:08:52;95170.09;;;8.81;56.79
49999;BME280;68071;45.062;7.356;2023-04-19T04:11:56;95165.91;;;9.68;52.91
49999;BME280;68071;45.062;7.356;2023-04-19T04:15:01;95165.03;;;8.68;57.83
49999;BME280;68071;45.062;7.356;2023-04-19T04:18:06;95163.06;;;8.54;60.84
49999;BME280;68071;45.062;7.356;2023-04-19T04:34:06;95170.09;;;8.15;63.90
49999;BME280;68071;45.062;7.356;2023-04-19T04:37:14;95172.00;;;6.31;76.06
49999;BME280;68071;45.062;7.356;2023-04-19T04:40:20;95173.34;;;6.51;73.13
49999;BME280;68071;45.062;7.356;2023-04-19T04:43:25;95175.78;;;6.64;71.87
49999;BME280;68071;45.062;7.356;2023-04-19T04:46:32;95172.13;;;7.05;68.24
49999;BME280;68071;45.062;7.356;2023-04-19T04:49:36;95180.94;;;7.50;64.26
49999;BME280;68071;45.062;7.356;2023-04-19T04:52:40;95170.28;;;7.34;66.44
49999;BME280;68071;45.062;7.356;2023-04-19T04:55:53;95178.03;;;7.14;66.78
49999;BME280;68071;45.062;7.356;2023-04-19T04:58:57;95184.00;;;7.31;67.05
49999;BME280;68071;45.062;7.356;2023-04-19T05:02:07;95175.69;;;7.16;68.81
49999;BME280;68071;45.062;7.356;2023-04-19T05:05:10;95176.94;;;6.63;74.88
49999;BME280;68071;45.062;7.356;2023-04-19T05:08:15;95172.22;;;7.26;67.73
49999;BME280;68071;45.062;7.356;2023-04-19T05:11:20;95171.41;;;7.22;70.50
49999;BME280;68071;45.062;7.356;2023-04-19T05:14:24;95171.91;;;7.50;69.38
49999;BME280;68071;45.062;7.356;2023-04-19T05:17:29;95171.56;;;7.59;69.22
49999;BME280;68071;45.062;7.356;2023-04-19T05:20:33;95177.81;;;7.52;71.15
49999;BME280;68071;45.062;7.356;2023-04-19T05:23:52;95170.88;;;7.98;67.11
49999;BME280;68071;45.062;7.356;2023-04-19T05:26:56;95170.09;;;8.05;68.25
49999;BME280;68071;45.062;7.356;2023-04-19T05:30:04;95168.91;;;8.02;71.57
49999;BME280;68071;45.062;7.356;2023-04-19T05:33:10;95167.69;;;7.81;71.18
49999;BME280;68071;45.062;7.356;2023-04-19T05:36:15;95165.78;;;8.14;68.80
49999;BME280;68071;45.062;7.356;2023-04-19T05:39:19;95171.28;;;8.11;73.17
49999;BME280;68071;45.062;7.356;2023-04-19T05:42:23;95165.81;;;8.47;72.99
49999;BME280;68071;45.062;7.356;2023-04-19T05:45:27;95180.75;;;8.53;72.62
49999;BME280;68071;45.062;7.356;2023-04-19T05:48:32;95175.66;;;8.66;72.88
49999;BME280;68071;45.062;7.356;2023-04-19T05:52:04;95174.84;;;8.98;70.65
49999;BME280;68071;45.062;7.356;2023-04-19T05:55:26;95176.75;;;9.19;62.81
49999;BME280;68071;45.062;7.356;2023-04-19T05:58:30;95181.69;;;9.64;57.83
49999;BME280;68071;45.062;7.356;2023-04-19T06:01:34;95179.47;;;9.23;74.60
49999;BME280;68071;45.062;7.356;2023-04-19T06:04:38;95171.50;;;9.54;72.77
49999;BME280;68071;45.062;7.356;2023-04-19T06:07:43;95165.47;;;9.77;62.88
49999;BME280;68071;45.062;7.356;2023-04-19T06:10:47;95168.34;;;10.26;57.88
49999;BME280;68071;45.062;7.356;2023-04-19T06:13:52;95174.13;;;10.47;62.36
49999;BME280;68071;45.062;7.356;2023-04-19T06:16:56;95169.19;;;10.69;59.47
49999;BME280;68071;45.062;7.356;2023-04-19T06:20:00;95160.00;;;10.83;56.37
49999;BME280;68071;45.062;7.356;2023-04-19T06:23:05;95157.41;;;11.07;64.00
49999;BME280;68071;45.062;7.356;2023-04-19T06:26:10;95156.91;;;11.15;58.40
49999;BME280;68071;45.062;7.356;2023-04-19T06:29:14;95151.19;;;11.33;52.40
49999;BME280;68071;45.062;7.356;2023-04-19T06:32:20;95149.31;;;11.58;50.93
49999;BME280;68071;45.062;7.356;2023-04-19T06:35:24;95151.53;;;12.01;48.83
49999;BME280;68071;45.062;7.356;2023-04-19T06:38:28;95146.16;;;12.18;49.25
49999;BME280;68071;45.062;7.356;2023-04-19T06:41:32;95138.78;;;12.07;47.72
49999;BME280;68071;45.062;7.356;2023-04-19T06:44:36;95136.22;;;12.20;48.29
49999;BME280;68071;45.062;7.356;2023-04-19T06:47:41;95136.81;;;12.32;48.92
49999;BME280;68071;45.062;7.356;2023-04-19T06:50:45;95132.31;;;12.41;49.27
49999;BME280;68071;45.062;7.356;2023-04-19T06:53:49;95142.56;;;12.45;49.49
49999;BME280;68071;45.062;7.356;2023-04-19T06:56:55;95131.06;;;12.46;48.78
49999;BME280;68071;45.062;7.356;2023-04-19T06:59:59;95129.28;;;12.60;47.54
49999;BME280;68071;45.062;7.356;2023-04-19T07:03:03;95128.84;;;12.61;47.62
49999;BME280;68071;45.062;7.356;2023-04-19T07:06:07;95125.56;;;12.90;46.46
49999;BME280;68071;45.062;7.356;2023-04-19T07:09:11;95128.34;;;12.90;47.63
49999;BME280;68071;45.062;7.356;2023-04-19T07:12:15;95128.94;;;13.01;47.53
49999;BME280;68071;45.062;7.356;2023-04-19T07:15:19;95127.03;;;13.39;50.88
49999;BME280;68071;45.062;7.356;2023-04-19T07:18:24;95122.84;;;13.51;47.68
49999;BME280;68071;45.062;7.356;2023-04-19T07:21:28;95120.31;;;13.16;49.23
49999;BME280;68071;45.062;7.356;2023-04-19T07:24:36;95121.28;;;13.29;49.00
49999;BME280;68071;45.062;7.356;2023-04-19T07:27:42;95117.22;;;13.34;50.17
49999;BME280;68071;45.062;7.356;2023-04-19T07:30:46;95115.38;;;13.68;49.79
49999;BME280;68071;45.062;7.356;2023-04-19T07:33:51;95113.81;;;13.67;48.43
49999;BME280;68071;45.062;7.356;2023-04-19T07:36:55;95113.59;;;13.77;47.16
49999;BME280;68071;45.062;7.356;2023-04-19T07:39:59;95104.44;;;13.77;49.11
49999;BME280;68071;45.062;7.356;2023-04-19T07:43:03;95102.69;;;13.67;48.29
49999;BME280;68071;45.062;7.356;2023-04-19T07:46:09;95102.00;;;13.63;48.66
49999;BME280;68071;45.062;7.356;2023-04-19T07:49:14;95103.19;;;13.61;45.72
49999;BME280;68071;45.062;7.356;2023-04-19T07:52:18;95106.03;;;13.78;46.70
49999;BME280;68071;45.062;7.356;2023-04-19T07:55:22;95102.88;;;14.13;45.78
49999;BME280;68071;45.062;7.356;2023-04-19T07:58:26;95103.25;;;13.78;47.34
49999;BME280;68071;45.062;7.356;2023-04-19T08:01:30;95100.81;;;14.17;44.52
49999;BME280;68071;45.062;7.356;2023-04-19T08:04:34;95108.16;;;13.70;47.06
49999;BME280;68071;45.062;7.356;2023-04-19T08:07:39;95106.22;;;13.87;45.90
49999;BME280;68071;45.062;7.356;2023-04-19T08:10:43;95100.88;;;14.13;43.53
49999;BME280;68071;45.062;7.356;2023-04-19T08:13:47;95106.34;;;13.64;44.91
49999;BME280;68071;45.062;7.356;2023-04-19T08:16:51;95099.13;;;13.66;43.95
49999;BME280;68071;45.062;7.356;2023-04-19T08:19:55;95096.88;;;14.14;42.43
49999;BME280;68071;45.062;7.356;2023-04-19T08:22:59;95097.69;;;14.31;45.57
49999;BME280;68071;45.062;7.356;2023-04-19T08:26:04;95089.00;;;14.29;43.62
49999;BME280;68071;45.062;7.356;2023-04-19T08:29:08;95093.69;;;14.49;44.71
49999;BME280;68071;45.062;7.356;2023-04-19T08:32:13;95088.66;;;15.06;41.52
49999;BME280;68071;45.062;7.356;2023-04-19T08:35:17;95078.91;;;14.69;43.90
49999;BME280;68071;45.062;7.356;2023-04-19T08:38:21;95077.91;;;14.92;42.34
49999;BME280;68071;45.062;7.356;2023-04-19T08:41:25;95073.91;;;14.93;42.46
49999;BME280;68071;45.062;7.356;2023-04-19T08:44:32;95077.00;;;15.80;43.04
49999;BME280;68071;45.062;7.356;2023-04-19T08:47:37;95069.28;;;15.45;41.76
49999;BME280;68071;45.062;7.356;2023-04-19T08:50:42;95067.75;;;15.57;42.42
49999;BME280;68071;45.062;7.356;2023-04-19T08:53:46;95063.03;;;15.96;41.12
49999;BME280;68071;45.062;7.356;2023-04-19T08:56:52;95063.44;;;15.26;41.65
49999;BME280;68071;45.062;7.356;2023-04-19T08:59:58;95061.00;;;16.10;42.79
49999;BME280;68071;45.062;7.356;2023-04-19T09:03:05;95049.84;;;16.10;40.89
49999;BME280;68071;45.062;7.356;2023-04-19T09:06:10;95047.81;;;16.49;40.20
49999;BME280;68071;45.062;7.356;2023-04-19T09:09:25;95051.16;;;16.79;38.27
49999;BME280;68071;45.062;7.356;2023-04-19T09:12:30;95043.94;;;15.95;38.74
49999;BME280;68071;45.062;7.356;2023-04-19T09:15:39;95039.00;;;16.38;40.23
49999;BME280;68071;45.062;7.356;2023-04-19T09:18:54;95045.19;;;16.07;40.16
49999;BME280;68071;45.062;7.356;2023-04-19T09:22:11;95029.56;;;16.09;40.89
49999;BME280;68071;45.062;7.356;2023-04-19T09:25:24;95028.44;;;16.07;39.94
49999;BME280;68071;45.062;7.356;2023-04-19T09:28:30;95027.34;;;16.04;38.89
49999;BME280;68071;45.062;7.356;2023-04-19T09:31:36;95018.69;;;16.50;39.88
49999;BME280;68071;45.062;7.356;2023-04-19T09:34:57;95025.16;;;16.34;40.30
49999;BME280;68071;45.062;7.356;2023-04-19T09:38:01;95018.13;;;16.42;40.07
49999;BME280;68071;45.062;7.356;2023-04-19T09:41:08;95014.69;;;16.25;40.70
49999;BME280;68071;45.062;7.356;2023-04-19T09:44:13;95011.38;;;16.66;40.00
49999;BME280;68071;45.062;7.356;2023-04-19T09:47:25;95008.47;;;16.56;39.83
49999;BME280;68071;45.062;7.356;2023-04-19T09:50:29;95004.13;;;16.55;41.32
49999;BME280;68071;45.062;7.356;2023-04-19T09:53:34;95005.84;;;17.32;41.19
49999;BME280;68071;45.062;7.356;2023-04-19T09:56:39;94999.53;;;16.97;40.76
49999;BME280;68071;45.062;7.356;2023-04-19T09:59:43;94990.50;;;16.92;40.76
49999;BME280;68071;45.062;7.356;2023-04-19T10:02:51;94995.09;;;17.31;43.26
49999;BME280;68071;45.062;7.356;2023-04-19T10:06:01;94986.88;;;17.59;39.16
49999;BME280;68071;45.062;7.356;2023-04-19T10:09:06;94985.28;;;17.48;39.66
49999;BME280;68071;45.062;7.356;2023-04-19T10:12:14;94987.31;;;17.03;40.60
49999;BME280;68071;45.062;7.356;2023-04-19T10:15:20;94984.53;;;17.03;41.00
49999;BME280;68071;45.062;7.356;2023-04-19T10:18:25;94977.94;;;17.10;40.83
49999;BME280;68071;45.062;7.356;2023-04-19T10:21:29;94981.56;;;17.51;39.86
49999;BME280;68071;45.062;7.356;2023-04-19T10:24:35;94977.56;;;17.30;42.49
49999;BME280;68071;45.062;7.356;2023-04-19T10:27:40;94974.13;;;17.26;39.96
49999;BME280;68071;45.062;7.356;2023-04-19T10:30:53;94977.19;;;16.97;40.06
49999;BME280;68071;45.062;7.356;2023-04-19T10:33:58;94970.00;;;17.08;41.07
49999;BME280;68071;45.062;7.356;2023-04-19T10:37:02;94959.72;;;17.28;40.52
49999;BME280;68071;45.062;7.356;2023-04-19T10:40:08;94960.03;;;17.61;39.82
49999;BME280;68071;45.062;7.356;2023-04-19T10:49:27;94947.69;;;17.49;40.74
49999;BME280;68071;45.062;7.356;2023-04-19T10:52:32;94938.09;;;17.50;41.10
49999;BME280;68071;45.062;7.356;2023-04-19T10:55:49;94930.25;;;18.27;37.29
49999;BME280;68071;45.062;7.356;2023-04-19T11:05:26;94922.66;;;18.65;38.09
49999;BME280;68071;45.062;7.356;2023-04-19T11:08:30;94908.19;;;18.66;39.44
49999;BME280;68071;45.062;7.356;2023-04-19T11:11:35;94894.63;;;17.99;41.11
49999;BME280;68071;45.062;7.356;2023-04-19T11:14:47;94896.66;;;18.64;38.39
49999;BME280;68071;45.062;7.356;2023-04-19T11:17:51;94894.97;;;18.29;39.15
49999;BME280;68071;45.062;7.356;2023-04-19T11:20:56;94890.13;;;18.95;38.21
49999;BME280;68071;45.062;7.356;2023-04-19T11:24:10;94875.63;;;19.06;37.36
49999;BME280;68071;45.062;7.356;2023-04-19T11:27:14;94875.72;;;19.30;36.37
49999;BME280;68071;45.062;7.356;2023-04-19T11:30:20;94868.69;;;19.35;36.14
49999;BME280;68071;45.062;7.356;2023-04-19T11:33:25;94866.56;;;19.20;36.70
49999;BME280;68071;45.062;7.356;2023-04-19T11:36:31;94864.53;;;19.21;35.81
49999;BME280;68071;45.062;7.356;2023-04-19T11:39:44;94853.84;;;19.44;35.60
49999;BME280;68071;45.062;7.356;2023-04-19T11:43:02;94845.38;;;19.29;36.20
49999;BME280;68071;45.062;7.356;2023-04-19T11:46:08;94835.25;;;19.89;35.61
49999;BME280;68071;45.062;7.356;2023-04-19T11:49:25;94834.84;;;19.72;34.42
49999;BME280;68071;45.062;7.356;2023-04-19T11:52:29;94817.28;;;19.38;37.16
49999;BME280;68071;45.062;7.356;2023-04-19T11:55:40;94819.47;;;19.92;34.82
49999;BME280;68071;45.062;7.356;2023-04-19T11:58:46;94820.19;;;20.02;33.60
49999;BME280;68071;45.062;7.356;2023-04-19T12:01:53;94802.56;;;19.77;32.95
49999;BME280;68071;45.062;7.356;2023-04-19T12:05:06;94806.75;;;20.06;34.51
49999;BME280;68071;45.062;7.356;2023-04-19T12:08:10;94795.78;;;19.69;35.19
49999;BME280;68071;45.062;7.356;2023-04-19T12:11:16;94794.75;;;19.57;33.88
49999;BME280;68071;45.062;7.356;2023-04-19T12:14:22;94790.94;;;19.69;36.67
49999;BME280;68071;45.062;7.356;2023-04-19T12:17:26;94786.34;;;20.05;33.39
49999;BME280;68071;45.062;7.356;2023-04-19T12:20:35;94778.97;;;19.69;34.54
49999;BME280;68071;45.062;7.356;2023-04-19T12:23:40;94779.19;;;19.80;33.97
49999;BME280;68071;45.062;7.356;2023-04-19T12:26:56;94786.94;;;19.85;35.75
49999;BME280;68071;45.062;7.356;2023-04-19T12:30:01;94782.25;;;20.46;32.44
49999;BME280;68071;45.062;7.356;2023-04-19T12:33:06;94767.13;;;20.28;32.92
49999;BME280;68071;45.062;7.356;2023-04-19T12:36:10;94774.97;;;20.39;33.23
49999;BME280;68071;45.062;7.356;2023-04-19T12:39:14;94761.41;;;20.22;32.08
49999;BME280;68071;45.062;7.356;2023-04-19T12:42:18;94763.03;;;20.14;33.70
49999;BME280;68071;45.062;7.356;2023-04-19T12:45:22;94770.16;;;20.39;32.36
49999;BME280;68071;45.062;7.356;2023-04-19T12:48:27;94751.81;;;19.75;33.35
49999;BME280;68071;45.062;7.356;2023-04-19T12:51:31;94752.00;;;20.10;34.49
49999;BME280;68071;45.062;7.356;2023-04-19T12:54:35;94746.06;;;20.78;31.82
49999;BME280;68071;45.062;7.356;2023-04-19T12:57:40;94734.50;;;20.91;30.44
49999;BME280;68071;45.062;7.356;2023-04-19T13:00:44;94730.50;;;21.12;31.39
49999;BME280;68071;45.062;7.356;2023-04-19T13:03:48;94733.03;;;20.05;32.77
49999;BME280;68071;45.062;7.356;2023-04-19T13:06:52;94721.25;;;19.77;33.92
49999;BME280;68071;45.062;7.356;2023-04-19T13:09:56;94718.63;;;19.73;35.01
49999;BME280;68071;45.062;7.356;2023-04-19T13:13:00;94715.94;;;20.03;35.48
49999;BME280;68071;45.062;7.356;2023-04-19T13:16:04;94717.03;;;19.82;32.28
49999;BME280;68071;45.062;7.356;2023-04-19T13:19:10;94700.25;;;20.56;32.48
49999;BME280;68071;45.062;7.356;2023-04-19T13:22:14;94691.75;;;20.51;31.86
49999;BME280;68071;45.062;7.356;2023-04-19T13:25:18;94690.84;;;20.60;31.48
49999;BME280;68071;45.062;7.356;2023-04-19T13:28:23;94683.69;;;20.74;31.91
49999;BME280;68071;45.062;7.356;2023-04-19T13:31:27;94679.16;;;21.33;31.83
49999;BME280;68071;45.062;7.356;2023-04-19T13:34:32;94680.56;;;21.22;32.38
49999;BME280;68071;45.062;7.356;2023-04-19T13:37:36;94655.53;;;21.45;31.01
49999;BME280;68071;45.062;7.356;2023-04-19T13:40:40;94665.00;;;21.89;30.71
49999;BME280;68071;45.062;7.356;2023-04-19T13:43:44;94658.41;;;21.09;30.69
49999;BME280;68071;45.062;7.356;2023-04-19T13:46:49;94653.94;;;21.38;32.71
49999;BME280;68071;45.062;7.356;2023-04-19T13:49:53;94650.16;;;21.62;32.54
49999;BME280;68071;45.062;7.356;2023-04-19T13:52:57;94646.44;;;21.97;31.67
49999;BME280;68071;45.062;7.356;2023-04-19T13:56:01;94630.03;;;21.69;29.94
49999;BME280;68071;45.062;7.356;2023-04-19T13:59:06;94637.81;;;21.59;32.17
49999;BME280;68071;45.062;7.356;2023-04-19T14:02:10;94632.25;;;22.12;29.97
49999;BME280;68071;45.062;7.356;2023-04-19T14:05:15;94615.88;;;22.16;29.81
49999;BME280;68071;45.062;7.356;2023-04-19T14:08:19;94611.41;;;22.30;29.98
49999;BME280;68071;45.062;7.356;2023-04-19T14:11:24;94615.19;;;21.69;30.85
49999;BME280;68071;45.062;7.356;2023-04-19T14:14:29;94600.06;;;21.66;30.53
49999;BME280;68071;45.062;7.356;2023-04-19T14:17:34;94594.59;;;22.10;29.82
49999;BME280;68071;45.062;7.356;2023-04-19T14:20:39;94588.16;;;21.09;32.35
49999;BME280;68071;45.062;7.356;2023-04-19T14:23:46;94594.13;;;21.85;29.02
49999;BME280;68071;45.062;7.356;2023-04-19T14:26:51;94587.03;;;21.63;30.13
49999;BME280;68071;45.062;7.356;2023-04-19T14:29:55;94581.09;;;22.14;29.30
49999;BME280;68071;45.062;7.356;2023-04-19T14:32:59;94579.25;;;22.43;29.49
49999;BME280;68071;45.062;7.356;2023-04-19T14:36:04;94577.28;;;22.17;29.48
49999;BME280;68071;45.062;7.356;2023-04-19T14:39:10;94574.88;;;22.42;30.46
49999;BME280;68071;45.062;7.356;2023-04-19T14:42:14;94572.31;;;22.76;28.03
49999;BME280;68071;45.062;7.356;2023-04-19T14:45:19;94566.19;;;23.32;26.97
49999;BME280;68071;45.062;7.356;2023-04-19T14:48:23;94564.66;;;23.37;26.68
49999;BME280;68071;45.062;7.356;2023-04-19T14:51:28;94558.06;;;22.47;29.58
49999;BME280;68071;45.062;7.356;2023-04-19T14:54:37;94559.78;;;23.32;26.67
49999;BME280;68071;45.062;7.356;2023-04-19T14:57:42;94553.41;;;23.48;25.52
49999;BME280;68071;45.062;7.356;2023-04-19T15:00:57;94542.94;;;23.77;25.21
49999;BME280;68071;45.062;7.356;2023-04-19T15:04:01;94549.28;;;22.40;29.62
49999;BME280;68071;45.062;7.356;2023-04-19T15:07:11;94543.22;;;22.96;27.34
49999;BME280;68071;45.062;7.356;2023-04-19T15:10:15;94540.31;;;23.34;27.40
49999;BME280;68071;45.062;7.356;2023-04-19T15:13:19;94538.03;;;22.40;28.22
49999;BME280;68071;45.062;7.356;2023-04-19T15:16:26;94531.44;;;22.98;29.35
49999;BME280;68071;45.062;7.356;2023-04-19T15:19:30;94531.00;;;22.24;29.86
49999;BME280;68071;45.062;7.356;2023-04-19T15:22:35;94528.56;;;23.58;26.26
49999;BME280;68071;45.062;7.356;2023-04-19T15:25:48;94528.88;;;23.89;26.79
49999;BME280;68071;45.062;7.356;2023-04-19T15:28:53;94518.47;;;24.88;24.37
49999;BME280;68071;45.062;7.356;2023-04-19T15:31:58;94514.72;;;23.54;27.00
49999;BME280;68071;45.062;7.356;2023-04-19T15:35:03;94519.19;;;23.06;27.95
49999;BME280;68071;45.062;7.356;2023-04-19T15:38:08;94512.88;;;22.68;26.22
49999;BME280;68071;45.062;7.356;2023-04-19T15:41:12;94506.66;;;21.83;29.00
49999;BME280;68071;45.062;7.356;2023-04-19T15:44:17;94512.66;;;23.55;27.88
49999;BME280;68071;45.062;7.356;2023-04-19T15:47:21;94512.19;;;23.96;26.83
49999;BME280;68071;45.062;7.356;2023-04-19T15:50:26;94500.56;;;24.74;25.20
49999;BME280;68071;45.062;7.356;2023-04-19T15:53:30;94505.19;;;24.77;25.71
49999;BME280;68071;45.062;7.356;2023-04-19T15:56:44;94500.84;;;24.42;26.00
49999;BME280;68071;45.062;7.356;2023-04-19T15:59:54;94504.25;;;24.29;26.14
49999;BME280;68071;45.062;7.356;2023-04-19T16:02:58;94504.19;;;25.28;24.21
49999;BME280;68071;45.062;7.356;2023-04-19T16:06:06;94501.75;;;25.01;24.88
49999;BME280;68071;45.062;7.356;2023-04-19T16:09:17;94506.03;;;25.14;24.46
49999;BME280;68071;45.062;7.356;2023-04-19T16:12:23;94500.03;;;25.34;25.68
49999;BME280;68071;45.062;7.356;2023-04-19T16:15:31;94492.44;;;26.26;24.03
49999;BME280;68071;45.062;7.356;2023-04-19T16:18:43;94496.41;;;26.18;24.22
49999;BME280;68071;45.062;7.356;2023-04-19T16:21:47;94488.00;;;26.37;23.98
49999;BME280;68071;45.062;7.356;2023-04-19T16:24:52;94493.00;;;26.25;24.09
49999;BME280;68071;45.062;7.356;2023-04-19T16:27:56;94483.94;;;26.26;23.64
49999;BME280;68071;45.062;7.356;2023-04-19T16:31:06;94485.16;;;26.37;23.01
49999;BME280;68071;45.062;7.356;2023-04-19T16:34:13;94479.59;;;25.11;24.52
49999;BME280;68071;45.062;7.356;2023-04-19T16:37:17;94477.56;;;25.53;25.23
49999;BME280;68071;45.062;7.356;2023-04-19T16:40:28;94481.25;;;26.65;22.84
49999;BME280;68071;45.062;7.356;2023-04-19T16:43:38;94474.41;;;26.30;23.62
49999;BME280;68071;45.062;7.356;2023-04-19T16:46:42;94479.66;;;26.45;23.48
49999;BME280;68071;45.062;7.356;2023-04-19T16:49:47;94469.81;;;26.51;23.54
49999;BME280;68071;45.062;7.356;2023-04-19T16:52:52;94473.66;;;27.74;21.83